sensor_id;sensor_type;location;lat;lon;timestamp;P1;durP1;ratioP1;P2;durP2;ratioP2
71353;SDS011;59393;51.652;4.864;2023-03-24T00:01:46;6.05;;;2.05;;
71353;SDS011;59393;51.652;4.864;2023-03-24T00:04:13;4.50;;;1.50;;
71353;SDS011;59393;51.652;4.864;2023-03-24T00:06:39;8.48;;;2.17;;
71353;SDS011;59393;51.652;4.864;2023-03-24T00:09:06;5.00;;;1.60;;
71353;SDS011;59393;51.652;4.864;2023-03-24T00:11:32;5.25;;;1.67;;
71353;SDS011;59393;51.652;4.864;2023-03-24T00:13:58;4.90;;;1.70;;
71353;SDS011;59393;51.652;4.864;2023-03-24T00:16:25;7.80;;;2.30;;
71353;SDS011;59393;51.652;4.864;2023-03-24T00:18:51;6.63;;;2.08;;
71353;SDS011;59393;51.652;4.864;2023-03-24T00:21:18;5.32;;;1.80;;
71353;SDS011;59393;51.652;4.864;2023-03-24T00:23:48;7.82;;;2.22;;
71353;SDS011;59393;51.652;4.864;2023-03-24T00:26:15;4.07;;;1.33;;
71353;SDS011;59393;51.652;4.864;2023-03-24T00:28:42;6.30;;;1.70;;
71353;SDS011;59393;51.652;4.864;2023-03-24T00:31:09;6.53;;;2.00;;
71353;SDS011;59393;51.652;4.864;2023-03-24T00:33:38;3.83;;;1.13;;
71353;SDS011;59393;51.652;4.864;2023-03-24T00:36:06;7.10;;;2.45;;
71353;SDS011;59393;51.652;4.864;2023-03-24T00:38:35;12.05;;;1.90;;
71353;SDS011;59393;51.652;4.864;2023-03-24T00:41:02;6.53;;;1.52;;
71353;SDS011;59393;51.652;4.864;2023-03-24T00:43:29;4.38;;;1.73;;
71353;SDS011;59393;51.652;4.864;2023-03-24T00:45:59;10.27;;;2.22;;
71353;SDS011;59393;51.652;4.864;2023-03-24T00:48:26;6.25;;;1.75;;
71353;SDS011;59393;51.652;4.864;2023-03-24T00:50:52;6.07;;;2.03;;
71353;SDS011;59393;51.652;4.864;2023-03-24T00:53:18;6.13;;;1.83;;
71353;SDS011;59393;51.652;4.864;2023-03-24T00:55:47;6.85;;;1.83;;
71353;SDS011;59393;51.652;4.864;2023-03-24T00:58:14;8.48;;;2.35;;
71353;SDS011;59393;51.652;4.864;2023-03-24T01:00:46;5.30;;;2.05;;
71353;SDS011;59393;51.652;4.864;2023-03-24T01:03:12;10.43;;;2.38;;
71353;SDS011;59393;51.652;4.864;2023-03-24T01:05:38;3.78;;;1.42;;
71353;SDS011;59393;51.652;4.864;2023-03-24T01:08:05;6.22;;;1.92;;
71353;SDS011;59393;51.652;4.864;2023-03-24T01:10:32;7.82;;;2.28;;
71353;SDS011;59393;51.652;4.864;2023-03-24T01:12:59;9.82;;;2.60;;
71353;SDS011;59393;51.652;4.864;2023-03-24T01:15:27;6.43;;;2.13;;
71353;SDS011;59393;51.652;4.864;2023-03-24T01:17:53;6.80;;;2.42;;
71353;SDS011;59393;51.652;4.864;2023-03-24T01:20:20;4.70;;;1.77;;
71353;SDS011;59393;51.652;4.864;2023-03-24T01:22:47;6.15;;;2.03;;
71353;SDS011;59393;51.652;4.864;2023-03-24T01:25:14;8.18;;;2.20;;
71353;SDS011;59393;51.652;4.864;2023-03-24T01:27:44;8.13;;;2.30;;
71353;SDS011;59393;51.652;4.864;2023-03-24T01:30:11;5.80;;;2.30;;
71353;SDS011;59393;51.652;4.864;2023-03-24T01:32:38;8.57;;;2.50;;
71353;SDS011;59393;51.652;4.864;2023-03-24T01:35:04;6.45;;;2.47;;
71353;SDS011;59393;51.652;4.864;2023-03-24T01:37:30;7.60;;;2.43;;
71353;SDS011;59393;51.652;4.864;2023-03-24T01:39:56;8.55;;;2.35;;
71353;SDS011;59393;51.652;4.864;2023-03-24T01:42:23;7.10;;;2.28;;
71353;SDS011;59393;51.652;4.864;2023-03-24T01:44:51;5.55;;;1.85;;
71353;SDS011;59393;51.652;4.864;2023-03-24T01:47:18;8.45;;;2.30;;
71353;SDS011;59393;51.652;4.864;2023-03-24T01:49:52;5.97;;;2.22;;
71353;SDS011;59393;51.652;4.864;2023-03-24T01:52:52;5.13;;;1.77;;
71353;SDS011;59393;51.652;4.864;2023-03-24T01:55:12;4.32;;;1.48;;
71353;SDS011;59393;51.652;4.864;2023-03-24T01:57:43;7.50;;;2.67;;
71353;SDS011;59393;51.652;4.864;2023-03-24T02:00:11;7.60;;;2.45;;
71353;SDS011;59393;51.652;4.864;2023-03-24T02:02:39;6.00;;;1.90;;
71353;SDS011;59393;51.652;4.864;2023-03-24T02:05:07;5.95;;;1.95;;
71353;SDS011;59393;51.652;4.864;2023-03-24T02:10:00;3.90;;;1.80;;
71353;SDS011;59393;51.652;4.864;2023-03-24T02:12:28;6.35;;;2.22;;
71353;SDS011;59393;51.652;4.864;2023-03-24T02:14:54;3.07;;;1.50;;
71353;SDS011;59393;51.652;4.864;2023-03-24T02:32:37;4.40;;;1.10;;
71353;SDS011;59393;51.652;4.864;2023-03-24T02:41:24;2.65;;;0.75;;
71353;SDS011;59393;51.652;4.864;2023-03-24T02:50:51;1.90;;;0.57;;
71353;SDS011;59393;51.652;4.864;2023-03-24T02:53:21;3.83;;;0.60;;
71353;SDS011;59393;51.652;4.864;2023-03-24T02:55:54;5.72;;;0.90;;
71353;SDS011;59393;51.652;4.864;2023-03-24T03:00:58;1.83;;;0.60;;
71353;SDS011;59393;51.652;4.864;2023-03-24T03:03:31;9.43;;;1.60;;
71353;SDS011;59393;51.652;4.864;2023-03-24T03:06:00;5.07;;;0.90;;
71353;SDS011;59393;51.652;4.864;2023-03-24T03:08:28;2.92;;;0.50;;
71353;SDS011;59393;51.652;4.864;2023-03-24T03:10:57;14.23;;;2.10;;
71353;SDS011;59393;51.652;4.864;2023-03-24T03:13:29;10.63;;;1.45;;
71353;SDS011;59393;51.652;4.864;2023-03-24T03:15:57;3.53;;;0.80;;
71353;SDS011;59393;51.652;4.864;2023-03-24T03:20:56;7.22;;;0.90;;
71353;SDS011;59393;51.652;4.864;2023-03-24T03:23:24;3.95;;;1.63;;
71353;SDS011;59393;51.652;4.864;2023-03-24T03:25:54;4.50;;;1.13;;
71353;SDS011;59393;51.652;4.864;2023-03-24T03:28:22;4.27;;;0.93;;
71353;SDS011;59393;51.652;4.864;2023-03-24T03:30:53;9.65;;;1.02;;
71353;SDS011;59393;51.652;4.864;2023-03-24T03:33:26;8.57;;;1.67;;
71353;SDS011;59393;51.652;4.864;2023-03-24T03:35:57;7.97;;;1.17;;
71353;SDS011;59393;51.652;4.864;2023-03-24T03:38:30;6.15;;;1.27;;
71353;SDS011;59393;51.652;4.864;2023-03-24T03:40:58;7.93;;;1.50;;
71353;SDS011;59393;51.652;4.864;2023-03-24T03:43:25;4.47;;;1.70;;
71353;SDS011;59393;51.652;4.864;2023-03-24T03:45:52;10.77;;;1.95;;
71353;SDS011;59393;51.652;4.864;2023-03-24T03:48:18;11.35;;;1.58;;
71353;SDS011;59393;51.652;4.864;2023-03-24T03:50:45;7.90;;;2.10;;
71353;SDS011;59393;51.652;4.864;2023-03-24T03:53:15;7.33;;;1.83;;
71353;SDS011;59393;51.652;4.864;2023-03-24T03:55:41;11.57;;;1.92;;
71353;SDS011;59393;51.652;4.864;2023-03-24T03:58:08;6.47;;;1.30;;
71353;SDS011;59393;51.652;4.864;2023-03-24T04:00:35;10.77;;;2.08;;
71353;SDS011;59393;51.652;4.864;2023-03-24T04:03:49;7.70;;;1.83;;
71353;SDS011;59393;51.652;4.864;2023-03-24T04:10:49;4.30;;;1.75;;
71353;SDS011;59393;51.652;4.864;2023-03-24T04:15:57;16.05;;;4.03;;
71353;SDS011;59393;51.652;4.864;2023-03-24T04:18:28;8.70;;;2.97;;
71353;SDS011;59393;51.652;4.864;2023-03-24T04:28:40;12.02;;;1.83;;
71353;SDS011;59393;51.652;4.864;2023-03-24T04:31:25;13.90;;;2.63;;
71353;SDS011;59393;51.652;4.864;2023-03-24T04:33:56;8.50;;;2.17;;
71353;SDS011;59393;51.652;4.864;2023-03-24T04:36:29;10.23;;;2.17;;
71353;SDS011;59393;51.652;4.864;2023-03-24T04:38:58;12.35;;;2.10;;
71353;SDS011;59393;51.652;4.864;2023-03-24T04:41:25;7.78;;;2.15;;
71353;SDS011;59393;51.652;4.864;2023-03-24T04:43:53;9.30;;;1.77;;
71353;SDS011;59393;51.652;4.864;2023-03-24T04:46:21;10.95;;;1.88;;
71353;SDS011;59393;51.652;4.864;2023-03-24T04:48:47;9.20;;;1.92;;
71353;SDS011;59393;51.652;4.864;2023-03-24T04:51:14;4.35;;;1.08;;
71353;SDS011;59393;51.652;4.864;2023-03-24T04:53:40;7.63;;;1.60;;
71353;SDS011;59393;51.652;4.864;2023-03-24T04:58:38;10.63;;;2.45;;
71353;SDS011;59393;51.652;4.864;2023-03-24T05:01:05;10.93;;;1.70;;
71353;SDS011;59393;51.652;4.864;2023-03-24T05:03:33;11.55;;;2.53;;
71353;SDS011;59393;51.652;4.864;2023-03-24T05:06:02;13.38;;;1.70;;
71353;SDS011;59393;51.652;4.864;2023-03-24T05:08:31;11.10;;;2.77;;
71353;SDS011;59393;51.652;4.864;2023-03-24T05:10:57;13.20;;;2.22;;
71353;SDS011;59393;51.652;4.864;2023-03-24T05:13:23;7.00;;;1.63;;
71353;SDS011;59393;51.652;4.864;2023-03-24T05:15:51;8.35;;;1.65;;
71353;SDS011;59393;51.652;4.864;2023-03-24T05:18:17;9.05;;;2.10;;
71353;SDS011;59393;51.652;4.864;2023-03-24T05:20:43;5.37;;;1.57;;
71353;SDS011;59393;51.652;4.864;2023-03-24T05:23:09;9.05;;;1.50;;
71353;SDS011;59393;51.652;4.864;2023-03-24T05:25:36;7.85;;;1.83;;
71353;SDS011;59393;51.652;4.864;2023-03-24T05:28:02;7.63;;;1.48;;
71353;SDS011;59393;51.652;4.864;2023-03-24T05:30:28;11.23;;;1.98;;
71353;SDS011;59393;51.652;4.864;2023-03-24T05:32:54;3.40;;;0.90;;
71353;SDS011;59393;51.652;4.864;2023-03-24T05:35:20;9.90;;;1.48;;
71353;SDS011;59393;51.652;4.864;2023-03-24T05:37:46;13.32;;;1.38;;
71353;SDS011;59393;51.652;4.864;2023-03-24T05:40:12;10.23;;;1.40;;
71353;SDS011;59393;51.652;4.864;2023-03-24T05:42:39;11.68;;;1.58;;
71353;SDS011;59393;51.652;4.864;2023-03-24T05:45:06;10.73;;;1.30;;
71353;SDS011;59393;51.652;4.864;2023-03-24T05:47:32;8.85;;;0.90;;
71353;SDS011;59393;51.652;4.864;2023-03-24T05:49:59;7.00;;;1.20;;
71353;SDS011;59393;51.652;4.864;2023-03-24T05:52:25;6.47;;;1.08;;
71353;SDS011;59393;51.652;4.864;2023-03-24T05:54:51;10.20;;;1.85;;
71353;SDS011;59393;51.652;4.864;2023-03-24T05:57:17;11.07;;;1.40;;
71353;SDS011;59393;51.652;4.864;2023-03-24T05:59:43;4.63;;;1.52;;
71353;SDS011;59393;51.652;4.864;2023-03-24T06:02:10;19.40;;;2.47;;
71353;SDS011;59393;51.652;4.864;2023-03-24T06:04:36;11.75;;;1.80;;
71353;SDS011;59393;51.652;4.864;2023-03-24T06:07:02;10.43;;;1.60;;
71353;SDS011;59393;51.652;4.864;2023-03-24T06:09:29;17.93;;;2.00;;
71353;SDS011;59393;51.652;4.864;2023-03-24T06:11:59;16.27;;;1.90;;
71353;SDS011;59393;51.652;4.864;2023-03-24T06:14:25;11.40;;;1.90;;
71353;SDS011;59393;51.652;4.864;2023-03-24T06:16:51;11.45;;;1.88;;
71353;SDS011;59393;51.652;4.864;2023-03-24T06:19:17;7.82;;;1.38;;
71353;SDS011;59393;51.652;4.864;2023-03-24T06:21:48;10.40;;;1.53;;
71353;SDS011;59393;51.652;4.864;2023-03-24T06:24:15;7.28;;;1.50;;
71353;SDS011;59393;51.652;4.864;2023-03-24T06:26:42;9.35;;;1.70;;
71353;SDS011;59393;51.652;4.864;2023-03-24T06:29:14;15.23;;;2.15;;
71353;SDS011;59393;51.652;4.864;2023-03-24T06:31:44;9.68;;;2.28;;
71353;SDS011;59393;51.652;4.864;2023-03-24T06:34:10;7.87;;;2.20;;
71353;SDS011;59393;51.652;4.864;2023-03-24T06:36:36;5.45;;;1.30;;
71353;SDS011;59393;51.652;4.864;2023-03-24T06:39:02;10.10;;;1.65;;
71353;SDS011;59393;51.652;4.864;2023-03-24T06:41:30;14.65;;;2.05;;
71353;SDS011;59393;51.652;4.864;2023-03-24T06:43:56;7.97;;;1.70;;
71353;SDS011;59393;51.652;4.864;2023-03-24T06:46:22;8.27;;;1.23;;
71353;SDS011;59393;51.652;4.864;2023-03-24T06:48:48;9.27;;;1.90;;
71353;SDS011;59393;51.652;4.864;2023-03-24T06:51:15;8.00;;;1.45;;
71353;SDS011;59393;51.652;4.864;2023-03-24T06:53:41;4.80;;;1.00;;
71353;SDS011;59393;51.652;4.864;2023-03-24T06:56:09;14.35;;;1.73;;
71353;SDS011;59393;51.652;4.864;2023-03-24T06:58:40;13.87;;;2.73;;
71353;SDS011;59393;51.652;4.864;2023-03-24T07:01:06;5.28;;;1.20;;
71353;SDS011;59393;51.652;4.864;2023-03-24T07:03:32;15.63;;;2.63;;
71353;SDS011;59393;51.652;4.864;2023-03-24T07:05:58;15.63;;;2.25;;
71353;SDS011;59393;51.652;4.864;2023-03-24T07:08:24;13.88;;;1.90;;
71353;SDS011;59393;51.652;4.864;2023-03-24T07:10:51;10.63;;;2.00;;
71353;SDS011;59393;51.652;4.864;2023-03-24T07:13:17;14.77;;;1.75;;
71353;SDS011;59393;51.652;4.864;2023-03-24T07:15:43;11.68;;;2.15;;
71353;SDS011;59393;51.652;4.864;2023-03-24T07:18:09;5.57;;;1.15;;
71353;SDS011;59393;51.652;4.864;2023-03-24T07:20:37;6.88;;;1.88;;
71353;SDS011;59393;51.652;4.864;2023-03-24T07:23:03;8.80;;;1.80;;
71353;SDS011;59393;51.652;4.864;2023-03-24T07:25:29;10.00;;;1.40;;
71353;SDS011;59393;51.652;4.864;2023-03-24T07:27:55;15.82;;;2.00;;
71353;SDS011;59393;51.652;4.864;2023-03-24T07:30:22;16.45;;;2.28;;
71353;SDS011;59393;51.652;4.864;2023-03-24T07:32:48;7.13;;;1.25;;
71353;SDS011;59393;51.652;4.864;2023-03-24T07:35:14;15.77;;;2.20;;
71353;SDS011;59393;51.652;4.864;2023-03-24T07:37:41;8.07;;;2.15;;
71353;SDS011;59393;51.652;4.864;2023-03-24T07:40:08;10.95;;;1.42;;
71353;SDS011;59393;51.652;4.864;2023-03-24T07:42:39;9.23;;;1.45;;
71353;SDS011;59393;51.652;4.864;2023-03-24T07:45:06;6.35;;;1.70;;
71353;SDS011;59393;51.652;4.864;2023-03-24T07:47:34;7.67;;;1.87;;
71353;SDS011;59393;51.652;4.864;2023-03-24T07:50:00;6.18;;;1.38;;
71353;SDS011;59393;51.652;4.864;2023-03-24T07:52:28;8.25;;;2.17;;
71353;SDS011;59393;51.652;4.864;2023-03-24T07:54:54;9.05;;;1.70;;
71353;SDS011;59393;51.652;4.864;2023-03-24T07:57:21;16.00;;;2.22;;
71353;SDS011;59393;51.652;4.864;2023-03-24T07:59:47;12.30;;;1.83;;
71353;SDS011;59393;51.652;4.864;2023-03-24T08:02:17;14.50;;;2.67;;
71353;SDS011;59393;51.652;4.864;2023-03-24T08:04:43;14.05;;;2.17;;
71353;SDS011;59393;51.652;4.864;2023-03-24T08:07:10;10.55;;;1.50;;
71353;SDS011;59393;51.652;4.864;2023-03-24T08:09:38;5.47;;;1.45;;
71353;SDS011;59393;51.652;4.864;2023-03-24T08:12:04;6.93;;;1.23;;
71353;SDS011;59393;51.652;4.864;2023-03-24T08:14:30;10.70;;;1.73;;
71353;SDS011;59393;51.652;4.864;2023-03-24T08:16:58;10.63;;;2.25;;
71353;SDS011;59393;51.652;4.864;2023-03-24T08:19:24;12.77;;;2.08;;
71353;SDS011;59393;51.652;4.864;2023-03-24T08:21:51;11.38;;;2.55;;
71353;SDS011;59393;51.652;4.864;2023-03-24T08:24:17;9.97;;;1.80;;
71353;SDS011;59393;51.652;4.864;2023-03-24T08:26:44;9.57;;;1.80;;
71353;SDS011;59393;51.652;4.864;2023-03-24T08:29:10;8.48;;;1.85;;
71353;SDS011;59393;51.652;4.864;2023-03-24T08:31:36;15.15;;;2.70;;
71353;SDS011;59393;51.652;4.864;2023-03-24T08:34:03;12.93;;;1.73;;
71353;SDS011;59393;51.652;4.864;2023-03-24T08:36:30;6.13;;;2.20;;
71353;SDS011;59393;51.652;4.864;2023-03-24T08:38:56;14.07;;;2.00;;
71353;SDS011;59393;51.652;4.864;2023-03-24T08:41:23;9.50;;;1.85;;
71353;SDS011;59393;51.652;4.864;2023-03-24T08:43:59;10.30;;;2.35;;
71353;SDS011;59393;51.652;4.864;2023-03-24T08:46:25;8.60;;;1.95;;
71353;SDS011;59393;51.652;4.864;2023-03-24T08:48:51;9.73;;;1.50;;
71353;SDS011;59393;51.652;4.864;2023-03-24T08:51:17;9.63;;;2.42;;
71353;SDS011;59393;51.652;4.864;2023-03-24T08:53:43;7.85;;;1.92;;
71353;SDS011;59393;51.652;4.864;2023-03-24T08:56:09;9.88;;;2.17;;
71353;SDS011;59393;51.652;4.864;2023-03-24T08:58:35;7.88;;;1.65;;
71353;SDS011;59393;51.652;4.864;2023-03-24T09:01:01;11.40;;;2.00;;
71353;SDS011;59393;51.652;4.864;2023-03-24T09:03:28;6.68;;;2.00;;
71353;SDS011;59393;51.652;4.864;2023-03-24T09:05:55;12.60;;;2.60;;
71353;SDS011;59393;51.652;4.864;2023-03-24T09:08:21;8.52;;;2.00;;
71353;SDS011;59393;51.652;4.864;2023-03-24T09:10:47;5.68;;;1.27;;
71353;SDS011;59393;51.652;4.864;2023-03-24T09:13:15;5.10;;;1.60;;
71353;SDS011;59393;51.652;4.864;2023-03-24T09:15:45;7.97;;;1.45;;
71353;SDS011;59393;51.652;4.864;2023-03-24T09:18:11;9.65;;;1.98;;
71353;SDS011;59393;51.652;4.864;2023-03-24T09:20:37;10.75;;;1.75;;
71353;SDS011;59393;51.652;4.864;2023-03-24T09:23:03;10.02;;;1.77;;
71353;SDS011;59393;51.652;4.864;2023-03-24T09:25:29;6.77;;;2.10;;
71353;SDS011;59393;51.652;4.864;2023-03-24T09:27:55;5.20;;;1.33;;
71353;SDS011;59393;51.652;4.864;2023-03-24T09:30:21;5.75;;;1.60;;
71353;SDS011;59393;51.652;4.864;2023-03-24T09:32:47;7.28;;;1.80;;
71353;SDS011;59393;51.652;4.864;2023-03-24T09:35:14;6.13;;;1.90;;
71353;SDS011;59393;51.652;4.864;2023-03-24T09:37:40;13.27;;;1.40;;
71353;SDS011;59393;51.652;4.864;2023-03-24T09:40:09;11.07;;;2.50;;
71353;SDS011;59393;51.652;4.864;2023-03-24T09:42:39;9.15;;;1.88;;
71353;SDS011;59393;51.652;4.864;2023-03-24T09:45:14;6.35;;;1.75;;
71353;SDS011;59393;51.652;4.864;2023-03-24T09:47:42;6.05;;;1.23;;
71353;SDS011;59393;51.652;4.864;2023-03-24T09:52:46;8.65;;;2.33;;
71353;SDS011;59393;51.652;4.864;2023-03-24T09:55:18;6.25;;;1.88;;
71353;SDS011;59393;51.652;4.864;2023-03-24T09:57:46;6.20;;;1.90;;
71353;SDS011;59393;51.652;4.864;2023-03-24T10:00:20;10.00;;;2.30;;
71353;SDS011;59393;51.652;4.864;2023-03-24T10:02:47;11.80;;;2.20;;
71353;SDS011;59393;51.652;4.864;2023-03-24T10:05:18;10.15;;;2.92;;
71353;SDS011;59393;51.652;4.864;2023-03-24T10:07:56;9.00;;;2.30;;
71353;SDS011;59393;51.652;4.864;2023-03-24T10:10:28;7.22;;;2.20;;
71353;SDS011;59393;51.652;4.864;2023-03-24T10:12:59;10.95;;;3.35;;
71353;SDS011;59393;51.652;4.864;2023-03-24T10:15:31;13.30;;;2.80;;
71353;SDS011;59393;51.652;4.864;2023-03-24T10:23:07;8.52;;;2.22;;
71353;SDS011;59393;51.652;4.864;2023-03-24T10:25:40;9.68;;;3.13;;
71353;SDS011;59393;51.652;4.864;2023-03-24T10:30:38;16.85;;;4.85;;
71353;SDS011;59393;51.652;4.864;2023-03-24T10:33:08;12.93;;;3.30;;
71353;SDS011;59393;51.652;4.864;2023-03-24T10:35:35;10.25;;;2.90;;
71353;SDS011;59393;51.652;4.864;2023-03-24T10:38:04;9.13;;;4.00;;
71353;SDS011;59393;51.652;4.864;2023-03-24T10:40:33;11.03;;;2.70;;
71353;SDS011;59393;51.652;4.864;2023-03-24T10:43:00;15.50;;;3.20;;
71353;SDS011;59393;51.652;4.864;2023-03-24T10:45:33;12.00;;;2.25;;
71353;SDS011;59393;51.652;4.864;2023-03-24T10:48:01;12.35;;;2.95;;
71353;SDS011;59393;51.652;4.864;2023-03-24T10:50:29;16.27;;;3.72;;
71353;SDS011;59393;51.652;4.864;2023-03-24T10:52:55;16.00;;;3.20;;
71353;SDS011;59393;51.652;4.864;2023-03-24T10:55:22;19.60;;;3.22;;
71353;SDS011;59393;51.652;4.864;2023-03-24T10:57:49;10.85;;;2.30;;
71353;SDS011;59393;51.652;4.864;2023-03-24T11:02:52;7.43;;;1.92;;
71353;SDS011;59393;51.652;4.864;2023-03-24T11:05:19;11.93;;;2.00;;
71353;SDS011;59393;51.652;4.864;2023-03-24T11:07:52;8.43;;;2.08;;
71353;SDS011;59393;51.652;4.864;2023-03-24T11:10:23;4.63;;;1.50;;
71353;SDS011;59393;51.652;4.864;2023-03-24T11:15:20;9.35;;;2.33;;
71353;SDS011;59393;51.652;4.864;2023-03-24T11:17:48;8.67;;;2.63;;
71353;SDS011;59393;51.652;4.864;2023-03-24T11:20:18;7.10;;;1.80;;
71353;SDS011;59393;51.652;4.864;2023-03-24T11:22:58;6.53;;;1.55;;
71353;SDS011;59393;51.652;4.864;2023-03-24T11:25:26;7.75;;;1.83;;
71353;SDS011;59393;51.652;4.864;2023-03-24T11:28:00;5.38;;;1.58;;
71353;SDS011;59393;51.652;4.864;2023-03-24T11:30:27;10.00;;;2.13;;
71353;SDS011;59393;51.652;4.864;2023-03-24T11:32:55;9.75;;;2.85;;
71353;SDS011;59393;51.652;4.864;2023-03-24T11:35:21;10.55;;;2.83;;
71353;SDS011;59393;51.652;4.864;2023-03-24T11:37:47;8.00;;;2.15;;
71353;SDS011;59393;51.652;4.864;2023-03-24T11:45:20;9.52;;;2.47;;
71353;SDS011;59393;51.652;4.864;2023-03-24T11:47:46;5.25;;;1.85;;
71353;SDS011;59393;51.652;4.864;2023-03-24T11:50:20;8.27;;;2.40;;
71353;SDS011;59393;51.652;4.864;2023-03-24T11:58:24;9.98;;;2.10;;
71353;SDS011;59393;51.652;4.864;2023-03-24T12:11:49;6.20;;;1.73;;
71353;SDS011;59393;51.652;4.864;2023-03-24T12:14:22;12.30;;;2.40;;
71353;SDS011;59393;51.652;4.864;2023-03-24T12:17:11;9.50;;;2.55;;
71353;SDS011;59393;51.652;4.864;2023-03-24T12:27:15;6.78;;;1.55;;
71353;SDS011;59393;51.652;4.864;2023-03-24T12:35:02;4.70;;;1.40;;
71353;SDS011;59393;51.652;4.864;2023-03-24T12:43:14;6.00;;;1.42;;
71353;SDS011;59393;51.652;4.864;2023-03-24T12:45:44;7.07;;;1.70;;
71353;SDS011;59393;51.652;4.864;2023-03-24T12:48:16;5.80;;;1.00;;
71353;SDS011;59393;51.652;4.864;2023-03-24T13:03:46;5.85;;;1.10;;
71353;SDS011;59393;51.652;4.864;2023-03-24T13:06:22;5.97;;;1.20;;
71353;SDS011;59393;51.652;4.864;2023-03-24T13:08:55;2.77;;;0.70;;
71353;SDS011;59393;51.652;4.864;2023-03-24T13:11:25;8.50;;;0.80;;
71353;SDS011;59393;51.652;4.864;2023-03-24T13:13:55;6.85;;;0.60;;
71353;SDS011;59393;51.652;4.864;2023-03-24T13:16:23;6.32;;;1.00;;
71353;SDS011;59393;51.652;4.864;2023-03-24T13:18:55;3.58;;;0.70;;
71353;SDS011;59393;51.652;4.864;2023-03-24T13:21:24;5.32;;;1.10;;
71353;SDS011;59393;51.652;4.864;2023-03-24T13:26:39;2.40;;;0.63;;
71353;SDS011;59393;51.652;4.864;2023-03-24T13:31:35;5.78;;;1.35;;
71353;SDS011;59393;51.652;4.864;2023-03-24T13:34:03;1.00;;;0.40;;
71353;SDS011;59393;51.652;4.864;2023-03-24T13:38:57;3.58;;;0.70;;
71353;SDS011;59393;51.652;4.864;2023-03-24T13:41:25;3.33;;;0.60;;
71353;SDS011;59393;51.652;4.864;2023-03-24T13:44:00;2.78;;;0.60;;
71353;SDS011;59393;51.652;4.864;2023-03-24T13:46:27;3.70;;;0.60;;
71353;SDS011;59393;51.652;4.864;2023-03-24T13:48:54;1.40;;;0.40;;
71353;SDS011;59393;51.652;4.864;2023-03-24T13:51:23;5.90;;;0.70;;
71353;SDS011;59393;51.652;4.864;2023-03-24T13:53:51;7.63;;;0.73;;
71353;SDS011;59393;51.652;4.864;2023-03-24T13:56:23;4.63;;;0.73;;
71353;SDS011;59393;51.652;4.864;2023-03-24T13:59:07;5.87;;;0.70;;
71353;SDS011;59393;51.652;4.864;2023-03-24T14:01:38;4.50;;;1.05;;
71353;SDS011;59393;51.652;4.864;2023-03-24T14:04:19;5.90;;;1.08;;
71353;SDS011;59393;51.652;4.864;2023-03-24T14:06:50;10.75;;;1.40;;
71353;SDS011;59393;51.652;4.864;2023-03-24T14:09:26;8.15;;;1.48;;
71353;SDS011;59393;51.652;4.864;2023-03-24T14:14:28;6.57;;;1.40;;
71353;SDS011;59393;51.652;4.864;2023-03-24T14:17:10;3.90;;;0.82;;
71353;SDS011;59393;51.652;4.864;2023-03-24T14:22:20;4.72;;;1.20;;
71353;SDS011;59393;51.652;4.864;2023-03-24T14:24:55;9.13;;;1.10;;
71353;SDS011;59393;51.652;4.864;2023-03-24T14:27:25;6.10;;;1.23;;
71353;SDS011;59393;51.652;4.864;2023-03-24T14:29:57;8.57;;;0.93;;
71353;SDS011;59393;51.652;4.864;2023-03-24T14:32:24;9.60;;;0.93;;
71353;SDS011;59393;51.652;4.864;2023-03-24T14:34:57;9.35;;;1.38;;
71353;SDS011;59393;51.652;4.864;2023-03-24T14:37:24;8.35;;;1.10;;
71353;SDS011;59393;51.652;4.864;2023-03-24T14:39:51;5.50;;;0.67;;
71353;SDS011;59393;51.652;4.864;2023-03-24T14:45:09;11.63;;;0.80;;
71353;SDS011;59393;51.652;4.864;2023-03-24T14:47:42;7.75;;;1.10;;
71353;SDS011;59393;51.652;4.864;2023-03-24T14:50:16;3.53;;;0.80;;
71353;SDS011;59393;51.652;4.864;2023-03-24T14:52:44;5.83;;;0.93;;
71353;SDS011;59393;51.652;4.864;2023-03-24T14:55:13;9.07;;;1.60;;
71353;SDS011;59393;51.652;4.864;2023-03-24T14:57:46;6.47;;;1.35;;
71353;SDS011;59393;51.652;4.864;2023-03-24T15:00:18;7.93;;;1.92;;
71353;SDS011;59393;51.652;4.864;2023-03-24T15:02:52;11.88;;;1.45;;
71353;SDS011;59393;51.652;4.864;2023-03-24T15:13:03;6.20;;;1.42;;
71353;SDS011;59393;51.652;4.864;2023-03-24T15:15:29;9.38;;;1.55;;
71353;SDS011;59393;51.652;4.864;2023-03-24T15:17:55;8.13;;;1.27;;
71353;SDS011;59393;51.652;4.864;2023-03-24T15:20:22;8.65;;;1.90;;
71353;SDS011;59393;51.652;4.864;2023-03-24T15:22:49;8.15;;;1.40;;
71353;SDS011;59393;51.652;4.864;2023-03-24T15:25:19;7.88;;;1.50;;
71353;SDS011;59393;51.652;4.864;2023-03-24T15:27:48;7.90;;;1.67;;
71353;SDS011;59393;51.652;4.864;2023-03-24T15:30:15;9.83;;;2.07;;
71353;SDS011;59393;51.652;4.864;2023-03-24T15:32:41;8.65;;;1.40;;
